createdAt,value
2022-11-05T00:05:13.830Z,10.65
2022-11-05T00:10:27.628Z,6.45
2022-11-05T00:15:48.490Z,6.60
2022-11-05T00:20:50.318Z,7.60
2022-11-05T00:25:59.597Z,11.13
2022-11-05T00:31:13.358Z,7.07
2022-11-05T00:36:15.100Z,10.43
2022-11-05T00:41:16.719Z,12.85
2022-11-05T00:46:18.365Z,13.43
2022-11-05T00:51:20.292Z,9.93
2022-11-05T00:56:22.068Z,11.23
2022-11-05T01:01:24.065Z,9.32
2022-11-05T01:06:25.855Z,5.18
2022-11-05T01:11:33.621Z,5.70
2022-11-05T01:16:36.699Z,6.50
2022-11-05T01:21:38.460Z,7.85
2022-11-05T01:26:40.119Z,9.48
2022-11-05T01:31:42.176Z,7.45
2022-11-05T01:36:43.989Z,9.82
2022-11-05T01:41:45.662Z,13.32
2022-11-05T01:46:47.347Z,10.27
2022-11-05T01:51:49.441Z,11.43
2022-11-05T01:56:55.199Z,8.98
2022-11-05T02:01:57.505Z,11.60
2022-11-05T02:07:00.091Z,11.88
2022-11-05T02:12:02.258Z,12.15
2022-11-05T02:17:16.790Z,10.10
2022-11-05T02:22:57.277Z,10.02
2022-11-05T02:28:37.260Z,11.05
2022-11-05T02:33:56.670Z,9.27
2022-11-05T02:39:27.531Z,8.52
2022-11-05T02:45:06.276Z,9.70
2022-11-05T02:50:15.544Z,7.90
2022-11-05T02:55:27.336Z,7.57
2022-11-05T03:00:54.131Z,10.32
2022-11-05T03:05:58.894Z,7.63
2022-11-05T03:11:32.465Z,5.15
2022-11-05T03:16:49.616Z,4.90
2022-11-05T03:21:57.732Z,6.65
2022-11-05T03:27:20.446Z,6.43
2022-11-05T03:32:23.853Z,4.45
2022-11-05T03:37:29.602Z,4.78
2022-11-05T03:42:35.736Z,6.10
2022-11-05T03:47:41.004Z,11.70
2022-11-05T03:52:53.486Z,10.38
2022-11-05T03:57:55.773Z,9.38
2022-11-05T04:02:57.520Z,7.88
2022-11-05T04:08:18.262Z,5.80
2022-11-05T04:13:25.764Z,6.03
2022-11-05T04:18:27.666Z,6.05
2022-11-05T04:23:47.853Z,6.10
2022-11-05T04:29:11.871Z,7.43
2022-11-05T04:34:13.653Z,6.00
2022-11-05T04:39:19.130Z,5.45
2022-11-05T04:44:20.778Z,7.15
2022-11-05T04:49:22.403Z,7.28
2022-11-05T04:54:24.113Z,8.57
2022-11-05T04:59:26.257Z,7.20
2022-11-05T05:04:27.960Z,9.77
2022-11-05T05:09:29.614Z,31.75
2022-11-05T05:14:31.693Z,18.08
2022-11-05T05:19:53.404Z,29.23
2022-11-05T05:24:56.607Z,21.50
2022-11-05T05:29:59.460Z,10.93
2022-11-05T05:35:01.193Z,5.60
2022-11-05T05:40:03.024Z,6.45
2022-11-05T05:45:05.140Z,7.60
2022-11-05T05:50:07.032Z,5.28
2022-11-05T05:55:12.547Z,6.18
2022-11-05T06:00:14.943Z,7.45
2022-11-05T06:05:16.729Z,6.63
2022-11-05T06:10:18.441Z,9.18
2022-11-05T06:15:20.378Z,9.30
2022-11-05T06:20:22.143Z,7.43
2022-11-05T06:25:24.345Z,7.35
2022-11-05T06:30:26.748Z,6.55
2022-11-05T06:35:28.413Z,7.55
2022-11-05T06:40:30.077Z,7.25
2022-11-05T06:45:32.287Z,6.40
2022-11-05T06:50:34.072Z,8.52
2022-11-05T06:55:35.751Z,8.90
2022-11-05T07:00:38.095Z,8.52
2022-11-05T07:05:46.821Z,12.15
2022-11-05T07:10:49.203Z,12.18
2022-11-05T07:15:50.992Z,17.88
2022-11-05T07:20:52.790Z,34.85
2022-11-05T07:25:54.540Z,14.65
2022-11-05T07:30:58.604Z,16.00
2022-11-05T07:36:00.299Z,8.73
2022-11-05T07:41:02.374Z,7.05
2022-11-05T07:46:04.071Z,13.55
2022-11-05T07:51:05.858Z,8.82
2022-11-05T07:56:08.535Z,10.88
2022-11-05T08:01:10.791Z,12.73
2022-11-05T08:06:12.727Z,14.13
2022-11-05T08:11:14.435Z,12.98
2022-11-05T08:16:17.059Z,14.68
2022-11-05T08:21:19.133Z,12.88
2022-11-05T08:26:20.822Z,16.73
2022-11-05T08:31:22.631Z,10.30
2022-11-05T08:36:24.975Z,11.25
2022-11-05T08:41:26.839Z,8.50
2022-11-05T08:46:29.161Z,6.80
2022-11-05T08:51:31.657Z,11.40
2022-11-05T08:56:33.502Z,14.00
2022-11-05T09:01:35.491Z,11.05
2022-11-05T09:06:42.636Z,12.07
2022-11-05T09:12:10.524Z,8.95
2022-11-05T09:17:17.718Z,10.82
2022-11-05T09:22:19.677Z,8.07
2022-11-05T09:27:21.510Z,8.65
2022-11-05T09:32:23.390Z,6.03
2022-11-05T09:37:25.442Z,8.10
2022-11-05T09:42:41.696Z,7.72
2022-11-05T09:47:49.502Z,8.95
2022-11-05T09:52:51.685Z,7.95
2022-11-05T09:57:58.761Z,7.97
2022-11-05T10:03:06.922Z,12.73
2022-11-05T10:08:18.388Z,7.57
2022-11-05T10:18:45.036Z,7.07
2022-11-05T10:23:47.626Z,5.72
2022-11-05T10:28:50.021Z,4.97
2022-11-05T10:33:55.975Z,4.93
2022-11-05T10:39:11.928Z,6.75
2022-11-05T10:44:48.856Z,5.68
2022-11-05T10:50:05.967Z,11.57
2022-11-05T10:55:18.663Z,8.20
2022-11-05T11:00:22.351Z,9.82
2022-11-05T11:05:28.898Z,10.60
2022-11-05T11:10:36.184Z,9.23
2022-11-05T11:15:37.942Z,7.55
2022-11-05T11:20:45.088Z,8.88
2022-11-05T11:26:00.673Z,10.65
2022-11-05T11:31:13.836Z,10.35
2022-11-05T11:36:19.468Z,9.18
2022-11-05T11:41:27.728Z,8.65
2022-11-05T11:46:33.113Z,12.13
2022-11-05T11:51:40.635Z,12.38
2022-11-05T11:56:44.992Z,8.35
2022-11-05T12:02:08.344Z,10.07
2022-11-05T12:07:31.122Z,8.63
2022-11-05T12:12:35.668Z,7.13
2022-11-05T12:18:03.499Z,9.23
2022-11-05T12:23:34.257Z,8.52
2022-11-05T12:28:36.292Z,6.25
2022-11-05T12:34:04.142Z,9.57
2022-11-05T12:39:31.981Z,9.05
2022-11-05T12:44:36.692Z,10.40
2022-11-05T12:50:09.928Z,17.05
2022-11-05T12:55:16.756Z,13.02
2022-11-05T13:00:22.223Z,6.80
2022-11-05T13:05:29.605Z,7.63
2022-11-05T13:10:39.464Z,8.13
2022-11-05T13:15:52.125Z,5.28
2022-11-05T13:20:56.356Z,9.52
2022-11-05T13:26:19.503Z,8.55
2022-11-05T13:31:27.829Z,20.00
2022-11-05T13:37:11.953Z,10.07
2022-11-05T13:42:32.543Z,8.90
2022-11-05T13:48:25.423Z,19.27
2022-11-05T13:53:36.330Z,18.30
2022-11-05T13:59:14.346Z,25.67
2022-11-05T14:04:21.530Z,10.93
2022-11-05T14:09:27.257Z,35.65
2022-11-05T14:14:34.025Z,13.18
2022-11-05T14:20:07.353Z,12.60
2022-11-05T14:25:18.189Z,15.93
2022-11-05T14:30:41.680Z,10.38
2022-11-05T14:35:43.678Z,15.93
2022-11-05T14:40:46.856Z,21.10
2022-11-05T14:46:06.292Z,14.95
2022-11-05T14:51:35.406Z,21.08
2022-11-05T14:56:50.560Z,16.67
2022-11-05T15:02:02.220Z,22.58
2022-11-05T15:07:04.390Z,21.67
2022-11-05T15:12:09.027Z,25.45
2022-11-05T15:17:21.895Z,17.52
2022-11-05T15:22:34.328Z,16.58
2022-11-05T15:27:45.201Z,21.05
2022-11-05T15:32:47.303Z,11.82
2022-11-05T15:37:54.586Z,17.42
2022-11-05T15:43:21.362Z,16.55
2022-11-05T15:48:23.053Z,24.15
2022-11-05T15:54:08.301Z,33.08
2022-11-05T15:59:16.535Z,18.90
2022-11-05T16:04:25.346Z,14.88
2022-11-05T16:09:29.322Z,16.17
2022-11-05T16:14:35.253Z,14.88
2022-11-05T16:19:41.428Z,18.80
2022-11-05T16:24:44.278Z,19.05
2022-11-05T16:29:54.591Z,14.30
2022-11-05T16:34:59.533Z,16.85
2022-11-05T16:40:01.989Z,15.65
2022-11-05T16:45:04.400Z,15.40
2022-11-05T16:50:27.195Z,22.42
2022-11-05T16:55:31.239Z,16.10
2022-11-05T17:00:33.345Z,15.35
2022-11-05T17:05:35.082Z,17.90
2022-11-05T17:10:36.840Z,17.98
2022-11-05T17:15:38.489Z,25.40
2022-11-05T17:20:54.870Z,31.35
2022-11-05T17:26:01.925Z,43.90
2022-11-05T17:31:09.849Z,24.08
2022-11-05T17:36:15.216Z,14.85
2022-11-05T17:41:19.470Z,27.48
2022-11-05T17:46:21.538Z,105.43
2022-11-05T17:51:23.620Z,27.38
2022-11-05T17:56:34.122Z,19.27
2022-11-05T18:01:43.153Z,10.77
2022-11-05T18:06:45.589Z,19.42
2022-11-05T18:11:47.415Z,17.75
2022-11-05T18:16:49.993Z,14.48
2022-11-05T18:21:51.713Z,14.73
2022-11-05T18:26:53.612Z,20.88
2022-11-05T18:31:55.341Z,24.88
2022-11-05T18:36:57.786Z,21.23
2022-11-05T18:41:59.674Z,19.50
2022-11-05T18:47:01.856Z,13.73
2022-11-05T18:52:04.273Z,24.35
2022-11-05T18:57:06.349Z,18.55
2022-11-05T19:02:10.837Z,20.17
2022-11-05T19:07:12.729Z,36.47
2022-11-05T19:12:14.934Z,16.85
2022-11-05T19:17:16.634Z,25.63
2022-11-05T19:22:18.847Z,21.85
2022-11-05T19:27:21.037Z,15.65
2022-11-05T19:32:22.824Z,22.45
2022-11-05T19:37:24.483Z,30.35
2022-11-05T19:42:26.941Z,22.45
2022-11-05T19:47:28.682Z,17.85
2022-11-05T19:52:30.484Z,25.67
2022-11-05T19:57:32.594Z,26.50
2022-11-05T20:02:35.031Z,19.48
2022-11-05T20:07:36.949Z,27.85
2022-11-05T20:12:39.136Z,55.22
2022-11-05T20:17:41.281Z,24.42
2022-11-05T20:22:43.551Z,50.88
2022-11-05T20:27:48.405Z,159.90
2022-11-05T20:32:56.883Z,93.72
2022-11-05T20:37:58.971Z,83.30
2022-11-05T20:43:00.648Z,93.32
2022-11-05T20:48:02.329Z,66.05
2022-11-05T20:53:03.983Z,43.38
2022-11-05T20:58:06.143Z,79.82
2022-11-05T21:03:08.220Z,80.20
2022-11-05T21:08:10.608Z,29.65
2022-11-05T21:13:14.058Z,40.17
2022-11-05T21:18:16.272Z,46.55
2022-11-05T21:23:18.653Z,164.45
2022-11-05T21:28:20.794Z,50.05
2022-11-05T21:33:22.945Z,70.00
2022-11-05T21:38:25.041Z,99.18
2022-11-05T21:43:26.817Z,45.60
2022-11-05T21:48:29.022Z,77.72
2022-11-05T21:53:54.537Z,55.15
2022-11-05T21:59:15.221Z,149.85
2022-11-05T22:04:17.258Z,84.40
2022-11-05T22:09:18.914Z,92.50
2022-11-05T22:14:21.168Z,52.70
2022-11-05T22:19:23.601Z,45.72
2022-11-05T22:24:27.923Z,25.98
2022-11-05T22:29:30.137Z,29.25
2022-11-05T22:34:32.466Z,43.65
2022-11-05T22:39:34.977Z,33.55
2022-11-05T22:44:37.273Z,37.00
2022-11-05T22:49:39.067Z,56.00
2022-11-05T22:54:41.239Z,33.63
2022-11-05T22:59:42.985Z,31.88
2022-11-05T23:04:45.408Z,30.08
2022-11-05T23:10:06.184Z,35.55
2022-11-05T23:15:08.489Z,46.45
2022-11-05T23:20:40.075Z,55.63
2022-11-05T23:25:41.906Z,51.13
2022-11-05T23:31:03.379Z,58.08
2022-11-05T23:36:23.640Z,66.43
2022-11-05T23:41:44.078Z,136.73
2022-11-05T23:47:21.858Z,77.47
2022-11-05T23:52:23.931Z,114.10
2022-11-05T23:57:25.717Z,86.93
